USTRANSCOM 7585


KNGU
Norfolk Naval Station (Chambers Field)
Norfolk, Virginia, US
KWRI
Joint Base McGuire Dix Lakehurst
Wrightstown, New Jersey, US

Activity Log

Date Flight Route Aircraft Duration
09/16/2019 CMB805 N0450F390 ORF J121 SWL SIE4 B752 1h 04m

Route Details

Aircraft Information
Primary: Boeing 757-200SF
Backup: Not Available
Route Data
Distance: 701nm
Sched. Duration: 2h 14m
Avg. Duration: 1h 04m (-111m)
Times Flown: 1
Recm'd Route: Not Available
Planned Altitude: 39,000ft
Origin Wx: KNGU 261959Z 28005KT 2 1/2SM BR OVC003 07/06 A2984 RMK AO2 SFC VIS 5 SLP105 T00670056
Dest. Wx: KWRI 261956Z COR AUTO 10006KT 2 3/4SM BR SCT005 OVC009 04/04 A2984 RMK TWR VIS 1 3/8 AO2 VIS 2 1/4V2 3/4 CIG 005V009 CIG 005 RWY06 CIG 004 RWY18 SLP106 P0001 T00420042 COR 2010
Notes: USTRANSCOM CONTRACT FLIGHT

Financial History
Total Freight: 35,386lbs
Average Load: 35,386lbs/flt
Fuel Used: 7,011lbs
Avg. Fuel Used: 7,011lbs/flt
Fuel Expense: $6,660
Avg. Fuel Expense: $6,660
Avg. Fuel Cost: $0.95/lbs
Total Gross Income: $43,879
Pilot Pay: $229
Total Expenses: $4,791
Total Revenue: $32,183
Average Revenue: $43,878.64